createdAt,value
2022-12-23T00:00:00.387Z,11.60
2022-12-23T00:01:00.359Z,12.90
2022-12-23T00:02:00.514Z,6.90
2022-12-23T00:03:00.560Z,7.40
2022-12-23T00:04:00.472Z,8.30
2022-12-23T00:05:00.256Z,10.30
2022-12-23T00:06:00.216Z,9.20
2022-12-23T00:07:00.190Z,8.80
2022-12-23T00:08:00.185Z,8.80
2022-12-23T00:09:00.136Z,9.10
2022-12-23T00:10:00.132Z,9.00
2022-12-23T00:11:00.121Z,10.00
2022-12-23T00:12:00.074Z,8.50
2022-12-23T00:13:00.038Z,8.20
2022-12-23T00:14:00.018Z,7.30
2022-12-23T00:14:59.988Z,8.20
2022-12-23T00:15:59.987Z,8.00
2022-12-23T00:17:00.045Z,9.50
2022-12-23T00:17:59.915Z,10.80
2022-12-23T00:18:59.886Z,10.20
2022-12-23T00:19:59.860Z,10.70
2022-12-23T00:21:04.770Z,8.20
2022-12-23T00:21:59.810Z,9.00
2022-12-23T00:22:59.784Z,9.60
2022-12-23T00:23:59.784Z,8.80
2022-12-23T00:24:59.734Z,9.40
2022-12-23T00:25:59.711Z,8.80
2022-12-23T00:26:59.685Z,9.00
2022-12-23T00:27:59.657Z,10.40
2022-12-23T00:28:59.639Z,10.20
2022-12-23T00:29:59.606Z,9.80
2022-12-23T00:30:59.588Z,8.20
2022-12-23T00:31:59.633Z,9.90
2022-12-23T00:32:59.541Z,9.10
2022-12-23T00:33:59.509Z,9.60
2022-12-23T00:34:59.480Z,9.80
2022-12-23T00:35:59.519Z,12.10
2022-12-23T00:36:59.440Z,10.90
2022-12-23T00:37:59.405Z,10.70
2022-12-23T00:38:59.408Z,10.40
2022-12-23T00:40:05.906Z,11.50
2022-12-23T00:40:59.325Z,10.70
2022-12-23T00:41:59.305Z,11.40
2022-12-23T00:42:59.277Z,12.90
2022-12-23T00:43:59.285Z,10.20
2022-12-23T00:44:59.229Z,10.70
2022-12-23T00:45:59.331Z,10.40
2022-12-23T00:46:59.185Z,9.90
2022-12-23T00:47:59.152Z,12.60
2022-12-23T00:48:59.126Z,12.20
2022-12-23T00:49:59.099Z,11.80
2022-12-23T00:50:59.075Z,11.30
2022-12-23T00:51:59.044Z,10.10
2022-12-23T00:52:59.022Z,10.60
2022-12-23T00:53:59.001Z,11.00
2022-12-23T00:54:58.975Z,12.70
2022-12-23T00:55:59.096Z,13.50
2022-12-23T00:56:58.923Z,24.60
2022-12-23T00:57:58.896Z,12.70
2022-12-23T00:58:58.871Z,11.10
2022-12-23T00:59:58.848Z,10.40
2022-12-23T01:00:58.900Z,10.50
2022-12-23T01:01:59.038Z,10.80
2022-12-23T01:02:58.919Z,9.90
2022-12-23T01:03:58.760Z,9.90
2022-12-23T01:04:58.724Z,9.30
2022-12-23T01:05:58.689Z,9.70
2022-12-23T01:06:58.670Z,9.60
2022-12-23T01:07:58.644Z,8.70
2022-12-23T01:08:58.617Z,8.30
2022-12-23T01:09:58.590Z,8.20
2022-12-23T01:10:58.565Z,8.90
2022-12-23T01:11:58.556Z,8.90
2022-12-23T01:12:58.518Z,9.40
2022-12-23T01:13:58.497Z,9.10
2022-12-23T01:14:58.463Z,8.50
2022-12-23T01:15:58.438Z,8.50
2022-12-23T01:16:58.533Z,9.20
2022-12-23T01:17:58.387Z,9.00
2022-12-23T01:18:58.363Z,9.80
2022-12-23T01:19:58.334Z,9.10
2022-12-23T01:20:58.313Z,8.90
2022-12-23T01:21:58.285Z,8.80
2022-12-23T01:22:58.264Z,9.20
2022-12-23T01:23:58.234Z,8.80
2022-12-23T01:24:58.212Z,9.80
2022-12-23T01:25:58.200Z,9.50
2022-12-23T01:26:58.170Z,9.30
2022-12-23T01:27:58.156Z,8.90
2022-12-23T01:28:58.112Z,9.50
2022-12-23T01:29:58.080Z,9.40
2022-12-23T01:30:58.058Z,8.60
2022-12-23T01:31:58.100Z,8.70
2022-12-23T01:32:58.007Z,8.30
2022-12-23T01:33:57.978Z,7.70
2022-12-23T01:34:57.957Z,8.00
2022-12-23T01:35:57.926Z,7.70
2022-12-23T01:36:57.905Z,7.90
2022-12-23T01:37:57.878Z,8.20
2022-12-23T01:38:57.855Z,8.00
2022-12-23T01:39:57.823Z,8.70
2022-12-23T01:40:57.804Z,7.70
2022-12-23T01:41:57.772Z,7.80
2022-12-23T01:42:57.769Z,7.70
2022-12-23T01:43:57.741Z,7.70
2022-12-23T01:44:57.725Z,7.90
2022-12-23T01:45:57.730Z,8.10
2022-12-23T01:46:57.658Z,7.80
2022-12-23T01:47:57.622Z,8.40
2022-12-23T01:48:57.603Z,8.30
2022-12-23T01:49:57.591Z,8.50
2022-12-23T01:50:57.546Z,7.50
2022-12-23T01:51:57.523Z,8.60
2022-12-23T01:53:00.524Z,8.50
2022-12-23T01:53:57.479Z,7.90
2022-12-23T01:54:57.451Z,8.10
2022-12-23T01:55:57.420Z,8.30
2022-12-23T01:56:57.408Z,7.90
2022-12-23T01:57:57.367Z,8.10
2022-12-23T01:58:57.343Z,8.50
2022-12-23T01:59:57.341Z,9.10
2022-12-23T02:00:57.312Z,8.60
2022-12-23T02:01:57.343Z,8.70
2022-12-23T02:02:57.497Z,8.40
2022-12-23T02:03:57.216Z,7.70
2022-12-23T02:04:57.192Z,7.50
2022-12-23T02:05:57.160Z,7.80
2022-12-23T02:06:57.142Z,7.50
2022-12-23T02:07:57.110Z,7.40
2022-12-23T02:08:57.087Z,7.40
2022-12-23T02:09:57.067Z,7.50
2022-12-23T02:10:57.038Z,8.20
2022-12-23T02:11:57.009Z,8.00
2022-12-23T02:12:56.985Z,8.10
2022-12-23T02:13:56.956Z,7.90
2022-12-23T02:14:56.934Z,8.20
2022-12-23T02:15:56.982Z,8.30
2022-12-23T02:16:56.969Z,8.30
2022-12-23T02:17:56.853Z,9.00
2022-12-23T02:18:56.829Z,8.50
2022-12-23T02:19:56.801Z,8.90
2022-12-23T02:20:56.793Z,9.50
2022-12-23T02:21:56.752Z,9.00
2022-12-23T02:22:56.729Z,9.20
2022-12-23T02:23:56.702Z,9.40
2022-12-23T02:24:56.684Z,9.30
2022-12-23T02:25:56.651Z,9.20
2022-12-23T02:26:56.631Z,9.20
2022-12-23T02:27:56.598Z,9.90
2022-12-23T02:28:56.573Z,10.30
2022-12-23T02:29:56.547Z,10.80
2022-12-23T02:30:56.646Z,9.40
2022-12-23T02:31:56.516Z,9.10
2022-12-23T02:32:56.473Z,9.30
2022-12-23T02:33:56.443Z,9.20
2022-12-23T02:34:56.422Z,9.10
2022-12-23T02:35:56.410Z,8.80
2022-12-23T02:36:56.367Z,9.10
2022-12-23T02:37:56.341Z,8.60
2022-12-23T02:38:56.320Z,8.70
2022-12-23T02:39:56.295Z,8.40
2022-12-23T02:40:56.266Z,8.40
2022-12-23T02:41:56.239Z,8.30
2022-12-23T02:42:56.219Z,7.70
2022-12-23T02:43:56.196Z,8.00
2022-12-23T02:44:56.168Z,7.90
2022-12-23T02:45:56.188Z,8.10
2022-12-23T02:46:56.121Z,8.10
2022-12-23T02:47:56.107Z,7.40
2022-12-23T02:48:56.061Z,7.40
2022-12-23T02:49:56.036Z,7.70
2022-12-23T02:50:56.017Z,7.60
2022-12-23T02:51:55.985Z,7.30
2022-12-23T02:52:55.965Z,7.90
2022-12-23T02:53:55.939Z,7.50
2022-12-23T02:54:55.911Z,6.90
2022-12-23T02:55:55.883Z,7.40
2022-12-23T02:56:55.859Z,7.10
2022-12-23T02:57:55.835Z,7.00
2022-12-23T02:58:55.809Z,7.30
2022-12-23T02:59:55.781Z,6.80
2022-12-23T03:00:55.755Z,6.60
2022-12-23T03:01:55.850Z,7.20
2022-12-23T03:02:55.774Z,6.20
2022-12-23T03:03:55.816Z,7.00
2022-12-23T03:04:55.657Z,7.80
2022-12-23T03:05:55.625Z,6.70
2022-12-23T03:06:55.603Z,7.50
2022-12-23T03:07:55.574Z,7.80
2022-12-23T03:08:55.552Z,7.80
2022-12-23T03:09:55.526Z,8.40
2022-12-23T03:10:55.504Z,8.10
2022-12-23T03:11:55.472Z,8.40
2022-12-23T03:12:55.454Z,9.00
2022-12-23T03:13:55.425Z,9.30
2022-12-23T03:14:55.396Z,9.40
2022-12-23T03:15:55.457Z,9.80
2022-12-23T03:16:55.347Z,9.80
2022-12-23T03:17:55.331Z,9.90
2022-12-23T03:18:55.296Z,10.00
2022-12-23T03:19:55.284Z,10.50
2022-12-23T03:20:55.246Z,10.90
2022-12-23T03:21:55.216Z,11.10
2022-12-23T03:22:55.197Z,10.90
2022-12-23T03:23:55.931Z,10.60
2022-12-23T03:24:55.144Z,10.90
2022-12-23T03:25:55.114Z,10.80
2022-12-23T03:26:55.094Z,10.70
2022-12-23T03:27:55.062Z,10.80
2022-12-23T03:28:55.040Z,11.00
2022-12-23T03:29:55.015Z,11.30
2022-12-23T03:30:55.016Z,10.70
2022-12-23T03:31:54.963Z,11.70
2022-12-23T03:32:54.944Z,11.50
2022-12-23T03:33:54.911Z,11.10
2022-12-23T03:34:54.884Z,11.70
2022-12-23T03:35:54.889Z,11.20
2022-12-23T03:36:54.831Z,11.20
2022-12-23T03:37:54.821Z,11.70
2022-12-23T03:38:54.790Z,11.60
2022-12-23T03:39:54.755Z,11.50
2022-12-23T03:40:54.741Z,11.40
2022-12-23T03:41:54.702Z,11.50
2022-12-23T03:42:54.679Z,11.10
2022-12-23T03:43:54.658Z,11.70
2022-12-23T03:45:27.911Z,12.10
2022-12-23T03:45:54.634Z,11.60
2022-12-23T03:46:54.620Z,11.20
2022-12-23T03:47:54.552Z,11.20
2022-12-23T03:48:54.546Z,11.00
2022-12-23T03:49:54.501Z,11.40
2022-12-23T03:50:54.479Z,11.30
2022-12-23T03:51:54.520Z,10.40
2022-12-23T03:52:54.423Z,10.70
2022-12-23T03:53:54.394Z,10.10
2022-12-23T03:54:54.379Z,10.20
2022-12-23T03:55:54.348Z,10.00
2022-12-23T03:56:54.336Z,9.20
2022-12-23T03:57:54.291Z,9.10
2022-12-23T03:58:54.272Z,9.30
2022-12-23T03:59:54.255Z,9.70
2022-12-23T04:00:54.220Z,9.60
2022-12-23T04:01:54.372Z,9.30
2022-12-23T04:02:54.306Z,9.40
2022-12-23T04:03:54.216Z,9.00
2022-12-23T04:04:54.118Z,8.90
2022-12-23T04:05:54.098Z,9.20
2022-12-23T04:06:54.070Z,8.60
2022-12-23T04:07:54.058Z,9.40
2022-12-23T04:08:54.010Z,8.70
2022-12-23T04:09:54.003Z,9.20
2022-12-23T04:10:53.961Z,8.90
2022-12-23T04:11:53.938Z,9.00
2022-12-23T04:12:53.911Z,9.60
2022-12-23T04:13:53.887Z,8.90
2022-12-23T04:14:53.860Z,8.60
2022-12-23T04:15:53.859Z,8.50
2022-12-23T04:16:53.809Z,8.60
2022-12-23T04:17:53.782Z,8.20
2022-12-23T04:18:53.758Z,8.30
2022-12-23T04:19:53.726Z,8.30
2022-12-23T04:20:53.705Z,8.50
2022-12-23T04:21:53.679Z,8.70
2022-12-23T04:22:53.653Z,7.70
2022-12-23T04:23:53.645Z,8.50
2022-12-23T04:24:53.606Z,7.90
2022-12-23T04:25:53.574Z,7.90
2022-12-23T04:26:53.565Z,8.10
2022-12-23T04:27:53.529Z,8.30
2022-12-23T04:28:53.506Z,8.50
2022-12-23T04:29:53.476Z,8.00
2022-12-23T04:30:53.454Z,8.10
2022-12-23T04:31:53.470Z,8.10
2022-12-23T04:32:53.400Z,7.60
2022-12-23T04:33:53.372Z,7.90
2022-12-23T04:34:53.351Z,8.50
2022-12-23T04:35:53.322Z,8.30
2022-12-23T04:36:53.303Z,7.70
2022-12-23T04:37:53.269Z,8.10
2022-12-23T04:38:53.251Z,7.50
2022-12-23T04:39:53.248Z,8.40
2022-12-23T04:40:53.195Z,8.50
2022-12-23T04:41:53.168Z,8.10
2022-12-23T04:42:53.146Z,7.70
2022-12-23T04:43:53.647Z,7.90
2022-12-23T04:44:53.098Z,8.00
2022-12-23T04:45:53.068Z,8.00
2022-12-23T04:46:53.121Z,7.90
2022-12-23T04:47:53.017Z,8.80
2022-12-23T04:48:52.994Z,8.30
2022-12-23T04:49:52.961Z,8.40
2022-12-23T04:50:52.938Z,7.80
2022-12-23T04:51:52.912Z,8.40
2022-12-23T04:52:52.888Z,8.20
2022-12-23T04:53:52.862Z,8.20
2022-12-23T04:54:52.852Z,8.60
2022-12-23T04:55:52.826Z,9.10
2022-12-23T04:56:52.788Z,9.60
2022-12-23T04:57:52.764Z,9.50
2022-12-23T04:58:52.735Z,9.50
2022-12-23T04:59:52.702Z,8.90
2022-12-23T05:00:52.717Z,8.50
2022-12-23T05:01:52.891Z,9.20
2022-12-23T05:02:52.767Z,9.80
2022-12-23T05:03:52.609Z,9.10
2022-12-23T05:04:52.577Z,9.00
2022-12-23T05:05:52.568Z,9.20
2022-12-23T05:06:52.526Z,9.20
2022-12-23T05:07:52.512Z,9.20
2022-12-23T05:08:52.477Z,9.00
2022-12-23T05:09:52.463Z,9.30
2022-12-23T05:10:52.429Z,9.00
2022-12-23T05:11:52.417Z,9.90
2022-12-23T05:12:52.378Z,8.10
2022-12-23T05:13:52.350Z,8.30
2022-12-23T05:14:52.324Z,8.90
2022-12-23T05:15:52.344Z,9.00
2022-12-23T05:16:52.383Z,9.20
2022-12-23T05:17:52.251Z,9.20
2022-12-23T05:18:52.227Z,9.10
2022-12-23T05:19:52.195Z,9.40
2022-12-23T05:20:52.170Z,8.90
2022-12-23T05:21:52.147Z,9.20
2022-12-23T05:22:52.121Z,8.90
2022-12-23T05:23:52.095Z,9.50
2022-12-23T05:24:52.072Z,9.20
2022-12-23T05:25:52.044Z,9.40
2022-12-23T05:26:59.444Z,8.80
2022-12-23T05:27:52.088Z,9.10
2022-12-23T05:28:51.964Z,9.30
2022-12-23T05:29:51.940Z,9.70
2022-12-23T05:30:51.913Z,9.30
2022-12-23T05:31:51.983Z,9.60
2022-12-23T05:32:51.866Z,8.90
2022-12-23T05:33:51.945Z,9.00
2022-12-23T05:34:51.813Z,9.10
2022-12-23T05:35:51.790Z,9.30
2022-12-23T05:36:51.762Z,8.80
2022-12-23T05:37:51.737Z,9.10
2022-12-23T05:38:51.709Z,9.60
2022-12-23T05:39:51.686Z,9.30
2022-12-23T05:40:51.660Z,9.80
2022-12-23T05:41:51.637Z,9.00
2022-12-23T05:42:51.630Z,9.00
2022-12-23T05:43:51.608Z,9.80
2022-12-23T05:44:51.558Z,8.70
2022-12-23T05:45:51.609Z,8.70
2022-12-23T05:46:51.507Z,9.10
2022-12-23T05:47:51.483Z,9.40
2022-12-23T05:48:51.453Z,9.40
2022-12-23T05:49:51.430Z,10.20
2022-12-23T05:50:51.409Z,8.90
2022-12-23T05:51:51.386Z,9.40
2022-12-23T05:52:51.356Z,9.30
2022-12-23T05:53:51.329Z,9.00
2022-12-23T05:54:51.302Z,8.80
2022-12-23T05:55:51.274Z,9.70
2022-12-23T05:56:51.253Z,8.70
2022-12-23T05:57:51.237Z,9.60
2022-12-23T05:58:51.213Z,9.10
2022-12-23T05:59:51.195Z,8.80
2022-12-23T06:00:51.158Z,8.80
2022-12-23T06:01:51.266Z,9.00
2022-12-23T06:02:53.952Z,9.60
2022-12-23T06:03:51.242Z,9.30
2022-12-23T06:04:51.046Z,10.00
2022-12-23T06:05:51.024Z,9.50
2022-12-23T06:06:50.996Z,9.40
2022-12-23T06:07:50.986Z,9.40
2022-12-23T06:08:55.743Z,9.60
2022-12-23T06:09:50.917Z,9.70
2022-12-23T06:10:50.889Z,9.70
2022-12-23T06:11:50.866Z,10.10
2022-12-23T06:12:50.846Z,10.40
2022-12-23T06:13:50.817Z,9.90
2022-12-23T06:14:50.790Z,9.90
2022-12-23T06:15:50.782Z,9.60
2022-12-23T06:16:50.808Z,9.30
2022-12-23T06:17:50.714Z,9.50
2022-12-23T06:18:50.684Z,10.00
2022-12-23T06:19:50.661Z,9.70
2022-12-23T06:20:50.645Z,9.40
2022-12-23T06:21:50.610Z,10.20
2022-12-23T06:22:50.599Z,9.00
2022-12-23T06:23:50.567Z,10.20
2022-12-23T06:24:50.537Z,10.50
2022-12-23T06:25:50.509Z,9.50
2022-12-23T06:26:56.513Z,9.40
2022-12-23T06:27:50.463Z,9.60
2022-12-23T06:28:50.431Z,9.80
2022-12-23T06:29:50.407Z,9.70
2022-12-23T06:30:50.379Z,10.10
2022-12-23T06:31:50.403Z,9.10
2022-12-23T06:32:50.327Z,9.90
2022-12-23T06:33:50.304Z,9.70
2022-12-23T06:34:50.276Z,10.40
2022-12-23T06:35:50.259Z,9.50
2022-12-23T06:36:50.232Z,12.60
2022-12-23T06:37:50.209Z,12.90
2022-12-23T06:38:50.173Z,13.30
2022-12-23T06:39:50.145Z,12.70
2022-12-23T06:40:50.123Z,12.90
2022-12-23T06:41:50.104Z,12.80
2022-12-23T06:42:50.071Z,15.00
2022-12-23T06:43:54.291Z,14.50
2022-12-23T06:44:50.016Z,13.20
2022-12-23T06:45:50.050Z,14.40
2022-12-23T06:46:49.965Z,14.30
2022-12-23T06:47:49.963Z,14.70
2022-12-23T06:48:49.919Z,15.60
2022-12-23T06:49:49.891Z,15.80
2022-12-23T06:50:49.871Z,16.40
2022-12-23T06:51:49.836Z,16.10
2022-12-23T06:52:49.808Z,16.40
2022-12-23T06:53:49.784Z,16.30
2022-12-23T06:54:49.771Z,16.90
2022-12-23T06:55:49.742Z,16.70
2022-12-23T06:56:49.709Z,16.00
2022-12-23T06:57:49.680Z,16.40
2022-12-23T06:58:49.656Z,17.10
2022-12-23T06:59:49.629Z,16.10
2022-12-23T07:00:49.682Z,17.30
2022-12-23T07:01:49.657Z,17.20
2022-12-23T07:02:49.641Z,17.50
2022-12-23T07:03:49.546Z,16.90
2022-12-23T07:04:49.497Z,17.10
2022-12-23T07:05:49.473Z,16.60
2022-12-23T07:06:49.443Z,16.70
2022-12-23T07:07:49.424Z,16.20
2022-12-23T07:08:49.392Z,17.10
2022-12-23T07:09:49.366Z,17.20
2022-12-23T07:10:49.339Z,17.20
2022-12-23T07:11:49.323Z,16.00
2022-12-23T07:12:51.010Z,16.80
2022-12-23T07:13:49.265Z,16.80
2022-12-23T07:14:49.242Z,17.30
2022-12-23T07:15:49.209Z,16.80
2022-12-23T07:16:49.224Z,16.10
2022-12-23T07:17:49.169Z,17.10
2022-12-23T07:18:49.130Z,15.80
2022-12-23T07:19:49.131Z,15.90
2022-12-23T07:20:49.079Z,16.40
2022-12-23T07:21:49.058Z,15.90
2022-12-23T07:22:49.027Z,15.90
2022-12-23T07:23:49.009Z,16.50
2022-12-23T07:24:48.975Z,16.80
2022-12-23T07:25:48.954Z,16.50
2022-12-23T07:26:48.926Z,17.00
2022-12-23T07:27:48.898Z,16.60
2022-12-23T07:28:48.871Z,16.40
2022-12-23T07:29:48.846Z,16.50
2022-12-23T07:30:48.817Z,16.30
2022-12-23T07:31:48.834Z,16.40
2022-12-23T07:32:48.765Z,16.70
2022-12-23T07:33:48.760Z,16.70
2022-12-23T07:34:48.714Z,16.90
2022-12-23T07:35:48.719Z,17.50
2022-12-23T07:36:48.662Z,17.20
2022-12-23T07:37:48.636Z,16.60
2022-12-23T07:38:48.609Z,16.40
2022-12-23T07:39:48.594Z,18.90
2022-12-23T07:40:48.557Z,18.40
2022-12-23T07:41:48.539Z,20.20
2022-12-23T07:42:48.502Z,19.40
2022-12-23T07:43:48.515Z,18.10
2022-12-23T07:44:48.459Z,16.40
2022-12-23T07:45:51.311Z,16.50
2022-12-23T07:46:48.444Z,16.30
2022-12-23T07:47:48.392Z,17.20
2022-12-23T07:48:48.376Z,17.60
2022-12-23T07:49:48.326Z,16.70
2022-12-23T07:50:48.298Z,17.70
2022-12-23T07:51:48.291Z,17.20
2022-12-23T07:52:48.252Z,18.10
2022-12-23T07:53:48.223Z,17.20
2022-12-23T07:54:48.189Z,18.70
2022-12-23T07:55:54.590Z,18.50
2022-12-23T07:56:48.139Z,17.90
2022-12-23T07:57:48.111Z,17.50
2022-12-23T07:58:48.101Z,18.20
2022-12-23T07:59:48.060Z,17.20
2022-12-23T08:00:48.036Z,16.80
2022-12-23T08:01:48.045Z,17.60
2022-12-23T08:02:48.179Z,18.70
2022-12-23T08:03:48.080Z,17.90
2022-12-23T08:04:47.967Z,17.40
2022-12-23T08:05:47.918Z,18.00
2022-12-23T08:06:47.876Z,17.70
2022-12-23T08:07:47.886Z,18.00
2022-12-23T08:08:47.832Z,17.80
2022-12-23T08:09:47.801Z,17.20
2022-12-23T08:10:48.550Z,17.50
2022-12-23T08:11:47.744Z,18.00
2022-12-23T08:12:47.718Z,17.60
2022-12-23T08:13:47.696Z,18.40
2022-12-23T08:14:47.690Z,18.90
2022-12-23T08:15:47.641Z,18.00
2022-12-23T08:16:47.712Z,17.60
2022-12-23T08:17:47.625Z,18.50
2022-12-23T08:18:47.565Z,18.10
2022-12-23T08:19:47.546Z,18.90
2022-12-23T08:20:47.519Z,18.00
2022-12-23T08:21:47.486Z,17.70
2022-12-23T08:22:47.467Z,17.60
2022-12-23T08:23:47.484Z,18.40
2022-12-23T08:24:47.414Z,19.00
2022-12-23T08:25:47.385Z,18.00
2022-12-23T08:26:47.360Z,19.30
2022-12-23T08:27:47.332Z,19.00
2022-12-23T08:28:47.321Z,18.90
2022-12-23T08:29:47.282Z,18.40
2022-12-23T08:30:47.271Z,19.30
2022-12-23T08:31:47.245Z,19.00
2022-12-23T08:32:47.198Z,19.90
2022-12-23T08:33:47.195Z,18.90
2022-12-23T08:34:47.163Z,18.90
2022-12-23T08:35:47.128Z,18.90
2022-12-23T08:36:47.100Z,19.50
2022-12-23T08:37:47.075Z,18.80
2022-12-23T08:38:47.047Z,18.20
2022-12-23T08:39:47.050Z,18.50
2022-12-23T08:40:46.995Z,18.00
2022-12-23T08:41:46.997Z,17.40
2022-12-23T08:42:46.944Z,18.60
2022-12-23T08:43:46.925Z,18.10
2022-12-23T08:44:46.908Z,19.50
2022-12-23T08:45:46.947Z,18.50
2022-12-23T08:46:47.015Z,19.00
2022-12-23T08:47:46.825Z,18.70
2022-12-23T08:48:49.412Z,19.10
2022-12-23T08:49:46.768Z,17.50
2022-12-23T08:50:46.744Z,19.10
2022-12-23T08:51:46.722Z,18.30
2022-12-23T08:52:46.696Z,18.40
2022-12-23T08:53:46.673Z,18.40
2022-12-23T08:54:46.648Z,18.60
2022-12-23T08:55:46.636Z,18.60
2022-12-23T08:56:46.591Z,17.80
2022-12-23T08:57:46.567Z,18.20
2022-12-23T08:58:46.554Z,17.60
2022-12-23T08:59:46.515Z,19.00
2022-12-23T09:00:46.490Z,19.30
2022-12-23T09:01:46.611Z,19.70
2022-12-23T09:02:46.722Z,19.80
2022-12-23T09:03:46.453Z,18.70
2022-12-23T09:04:46.383Z,18.50
2022-12-23T09:05:46.368Z,16.90
2022-12-23T09:06:46.340Z,17.30
2022-12-23T09:07:46.310Z,16.80
2022-12-23T09:08:46.281Z,17.30
2022-12-23T09:09:46.255Z,17.80
2022-12-23T09:10:46.250Z,16.60
2022-12-23T09:11:46.223Z,17.00
2022-12-23T09:12:46.180Z,17.00
2022-12-23T09:13:46.156Z,17.70
2022-12-23T09:14:46.131Z,18.00
2022-12-23T09:15:46.195Z,16.60
2022-12-23T09:16:46.077Z,16.80
2022-12-23T09:17:46.057Z,16.40
2022-12-23T09:18:46.031Z,16.10
2022-12-23T09:19:52.404Z,17.30
2022-12-23T09:20:45.982Z,16.30
2022-12-23T09:21:45.959Z,15.80
2022-12-23T09:22:45.925Z,16.80
2022-12-23T09:23:45.905Z,17.40
2022-12-23T09:24:45.875Z,16.50
2022-12-23T09:25:45.846Z,17.20
2022-12-23T09:26:45.823Z,17.10
2022-12-23T09:27:45.809Z,17.00
2022-12-23T09:28:45.777Z,17.40
2022-12-23T09:29:45.746Z,17.00
2022-12-23T09:30:45.810Z,17.10
2022-12-23T09:31:45.747Z,16.90
2022-12-23T09:32:45.675Z,19.20
2022-12-23T09:33:45.643Z,16.80
2022-12-23T09:34:45.617Z,18.00
2022-12-23T09:35:45.589Z,17.00
2022-12-23T09:36:49.131Z,18.50
2022-12-23T09:37:45.543Z,17.30
2022-12-23T09:38:45.516Z,17.40
2022-12-23T09:39:45.489Z,17.80
2022-12-23T09:40:45.464Z,16.50
2022-12-23T09:41:45.440Z,17.60
2022-12-23T09:42:45.412Z,17.40
2022-12-23T09:43:45.413Z,17.40
2022-12-23T09:44:45.376Z,17.10
2022-12-23T09:45:45.336Z,16.60
2022-12-23T09:46:45.369Z,16.00
2022-12-23T09:47:45.283Z,18.00
2022-12-23T09:48:45.276Z,18.10
2022-12-23T09:49:45.242Z,16.90
2022-12-23T09:50:45.213Z,16.30
2022-12-23T09:51:45.182Z,17.80
2022-12-23T09:52:45.158Z,17.90
2022-12-23T09:53:45.133Z,17.50
2022-12-23T09:54:45.111Z,17.50
2022-12-23T09:55:45.090Z,17.90
2022-12-23T09:56:45.068Z,17.10
2022-12-23T09:57:45.037Z,16.70
2022-12-23T09:58:45.013Z,17.30
2022-12-23T09:59:44.997Z,18.30
2022-12-23T10:00:44.965Z,17.10
2022-12-23T10:01:45.321Z,16.30
2022-12-23T10:02:45.153Z,16.00
2022-12-23T10:03:45.130Z,17.30
2022-12-23T10:04:44.866Z,18.10
2022-12-23T10:05:44.828Z,17.70
2022-12-23T10:06:44.810Z,17.80
2022-12-23T10:07:44.781Z,19.40
2022-12-23T10:08:44.756Z,19.60
2022-12-23T10:09:44.730Z,22.30
2022-12-23T10:10:44.755Z,21.10
2022-12-23T10:11:44.681Z,20.60
2022-12-23T10:12:44.653Z,20.10
2022-12-23T10:13:44.642Z,22.90
2022-12-23T10:14:44.605Z,19.20
2022-12-23T10:15:44.663Z,18.70
2022-12-23T10:16:44.627Z,18.60
2022-12-23T10:17:44.527Z,18.30
2022-12-23T10:18:44.509Z,18.20
2022-12-23T10:19:44.476Z,16.90
2022-12-23T10:20:44.457Z,18.40
2022-12-23T10:21:47.670Z,18.90
2022-12-23T10:22:44.407Z,19.20
2022-12-23T10:23:44.381Z,18.70
2022-12-23T10:24:44.357Z,19.20
2022-12-23T10:25:44.339Z,19.10
2022-12-23T10:26:44.306Z,19.40
2022-12-23T10:27:44.280Z,17.90
2022-12-23T10:28:44.266Z,18.80
2022-12-23T10:29:44.227Z,17.60
2022-12-23T10:31:10.881Z,16.80
2022-12-23T10:31:44.314Z,18.70
2022-12-23T10:32:44.262Z,17.70
2022-12-23T10:33:44.144Z,16.70
2022-12-23T10:34:44.231Z,16.70
2022-12-23T10:35:44.148Z,16.80
2022-12-23T10:36:44.104Z,17.50
2022-12-23T10:37:44.045Z,16.90
2022-12-23T10:38:43.999Z,15.70
2022-12-23T10:39:43.975Z,17.20
2022-12-23T10:40:43.956Z,15.90
2022-12-23T10:41:43.935Z,17.00
2022-12-23T10:42:43.907Z,16.60
2022-12-23T10:43:43.875Z,16.50
2022-12-23T10:44:43.855Z,17.60
2022-12-23T10:45:43.831Z,17.70
2022-12-23T10:46:43.859Z,17.80
2022-12-23T10:47:43.807Z,17.00
2022-12-23T10:48:43.750Z,18.30
2022-12-23T10:49:43.732Z,18.10
2022-12-23T10:50:43.703Z,18.60
2022-12-23T10:51:43.674Z,19.10
2022-12-23T10:52:43.652Z,17.50
2022-12-23T10:53:43.624Z,17.40
2022-12-23T10:54:43.607Z,17.30
2022-12-23T10:55:43.575Z,17.90
2022-12-23T10:56:43.550Z,17.30
2022-12-23T10:57:43.537Z,17.00
2022-12-23T10:58:43.504Z,17.10
2022-12-23T10:59:43.475Z,16.10
2022-12-23T11:00:43.591Z,28.20
2022-12-23T11:01:43.630Z,20.20
2022-12-23T11:02:43.469Z,17.40
2022-12-23T11:03:43.534Z,16.40
2022-12-23T11:04:43.353Z,17.20
2022-12-23T11:05:43.325Z,17.80
2022-12-23T11:06:43.312Z,17.00
2022-12-23T11:07:45.059Z,16.80
2022-12-23T11:08:43.247Z,17.40
2022-12-23T11:09:43.219Z,19.10
2022-12-23T11:10:43.197Z,17.30
2022-12-23T11:11:43.172Z,16.90
2022-12-23T11:12:43.155Z,16.90
2022-12-23T11:13:43.121Z,17.30
2022-12-23T11:14:43.103Z,16.90
2022-12-23T11:15:43.069Z,17.70
2022-12-23T11:16:43.115Z,16.50
2022-12-23T11:17:43.020Z,17.00
2022-12-23T11:18:42.999Z,16.30
2022-12-23T11:19:42.992Z,16.70
2022-12-23T11:20:42.952Z,18.00
2022-12-23T11:21:42.921Z,16.40
2022-12-23T11:22:42.895Z,17.30
2022-12-23T11:23:42.871Z,16.80
2022-12-23T11:24:43.416Z,17.70
2022-12-23T11:25:42.820Z,17.10
2022-12-23T11:26:42.794Z,17.30
2022-12-23T11:27:42.767Z,19.40
2022-12-23T11:28:42.745Z,16.80
2022-12-23T11:29:42.731Z,17.50
2022-12-23T11:30:42.697Z,16.50
2022-12-23T11:31:42.736Z,16.80
2022-12-23T11:32:42.642Z,17.00
2022-12-23T11:33:42.615Z,16.70
2022-12-23T11:34:42.598Z,16.80
2022-12-23T11:35:42.620Z,16.60
2022-12-23T11:36:42.548Z,17.00
2022-12-23T11:37:42.515Z,15.70
2022-12-23T11:38:42.488Z,16.50
2022-12-23T11:39:42.475Z,17.50
2022-12-23T11:40:42.440Z,16.40
2022-12-23T11:41:42.408Z,17.00
2022-12-23T11:42:42.387Z,17.00
2022-12-23T11:43:42.368Z,17.50
2022-12-23T11:44:42.338Z,16.70
2022-12-23T11:45:42.457Z,17.70
2022-12-23T11:46:42.285Z,16.50
2022-12-23T11:47:42.257Z,15.50
2022-12-23T11:48:42.233Z,16.40
2022-12-23T11:49:42.206Z,16.80
2022-12-23T11:50:42.184Z,16.10
2022-12-23T11:51:42.185Z,16.20
2022-12-23T11:52:42.135Z,16.40
2022-12-23T11:53:42.106Z,17.10
2022-12-23T11:54:42.097Z,17.70
2022-12-23T11:55:42.054Z,18.40
2022-12-23T11:56:42.119Z,18.20
2022-12-23T11:57:42.005Z,19.00
2022-12-23T11:58:41.982Z,19.20
2022-12-23T11:59:41.954Z,18.60
2022-12-23T12:00:41.926Z,18.40
2022-12-23T12:01:41.898Z,17.80
2022-12-23T12:02:41.967Z,16.90
2022-12-23T12:03:41.889Z,18.20
2022-12-23T12:04:41.828Z,18.60
2022-12-23T12:05:41.800Z,19.40
2022-12-23T12:06:41.782Z,16.80
2022-12-23T12:07:41.772Z,17.60
2022-12-23T12:08:41.725Z,16.30
2022-12-23T12:09:41.698Z,16.60
2022-12-23T12:10:41.674Z,16.70
2022-12-23T12:11:41.647Z,16.30
2022-12-23T12:12:41.623Z,17.00
2022-12-23T12:13:41.595Z,16.00
2022-12-23T12:14:41.573Z,18.40
2022-12-23T12:15:41.557Z,17.30
2022-12-23T12:16:41.565Z,17.60
2022-12-23T12:17:41.499Z,20.80
2022-12-23T12:18:41.471Z,18.70
2022-12-23T12:19:41.443Z,19.00
2022-12-23T12:20:41.487Z,18.90
2022-12-23T12:21:41.393Z,18.50
2022-12-23T12:22:41.372Z,17.30
2022-12-23T12:23:41.471Z,16.20
2022-12-23T12:24:41.316Z,18.30
2022-12-23T12:25:41.344Z,17.30
2022-12-23T12:26:41.305Z,16.00
2022-12-23T12:27:41.242Z,16.20
2022-12-23T12:28:41.221Z,15.80
2022-12-23T12:29:41.187Z,15.20
2022-12-23T12:30:41.205Z,15.20
2022-12-23T12:31:41.150Z,14.90
2022-12-23T12:32:41.115Z,15.50
2022-12-23T12:33:41.096Z,15.40
2022-12-23T12:34:41.069Z,15.90
2022-12-23T12:35:41.040Z,14.40
2022-12-23T12:36:41.104Z,15.60
2022-12-23T12:37:40.983Z,15.50
2022-12-23T12:38:40.962Z,14.20
2022-12-23T12:39:40.948Z,14.50
2022-12-23T12:40:40.926Z,15.60
2022-12-23T12:41:40.882Z,14.00
2022-12-23T12:42:40.857Z,14.20
2022-12-23T12:43:40.827Z,14.60
2022-12-23T12:44:40.802Z,14.30
2022-12-23T12:45:40.794Z,14.10
2022-12-23T12:46:40.753Z,15.50
2022-12-23T12:48:00.171Z,14.50
2022-12-23T12:48:40.712Z,14.20
2022-12-23T12:49:40.675Z,14.10
2022-12-23T12:50:40.650Z,14.70
2022-12-23T12:51:40.622Z,14.20
2022-12-23T12:52:40.602Z,12.80
2022-12-23T12:53:40.570Z,13.00
2022-12-23T12:54:40.555Z,13.80
2022-12-23T12:55:40.542Z,13.80
2022-12-23T12:56:40.500Z,13.80
2022-12-23T12:57:40.469Z,13.10
2022-12-23T12:58:40.455Z,13.80
2022-12-23T12:59:40.421Z,14.00
2022-12-23T13:00:40.392Z,13.70
2022-12-23T13:01:40.478Z,12.80